Time;durP1;ratioP1;P1;durP2;ratioP2;P2;SDS_P1;SDS_P2;PMS_P1;PMS_P2;Temp;Humidity;BMP_temperature;BMP_pressure;BME280_temperature;BME280_humidity;BME280_pressure;Samples;Min_cycle;Max_cycle;Signal;HPM_P1;HPM_P2
2023/04/27 00:00:51;;;;;;;0.93;0.93;;;;;;;5.30;100.00;100056.19;7391112;19;20098;-81
2023/04/27 00:03:17;;;;;;;1.67;1.58;;;;;;;5.30;100.00;100045.16;7391697;19;20025;-81
2023/04/27 00:05:43;;;;;;;1.35;1.25;;;;;;;5.37;100.00;100044.97;7388918;19;20034;-82
2023/04/27 00:08:09;;;;;;;2.80;0.68;;;;;;;5.37;100.00;100047.75;7390765;19;20018;-82
2023/04/27 00:10:36;;;;;;;6.13;2.15;;;;;;;5.51;100.00;100030.78;7390699;19;20014;-81
2023/04/27 00:13:02;;;;;;;5.18;2.60;;;;;;;5.32;100.00;100021.44;7394957;19;20469;-81
2023/04/27 00:15:28;;;;;;;1.65;1.55;;;;;;;5.54;100.00;100018.06;7390821;19;20010;-82
2023/04/27 00:17:56;;;;;;;1.38;1.27;;;;;;;5.35;100.00;100019.75;7393855;19;20536;-82
2023/04/27 00:20:22;;;;;;;2.95;1.63;;;;;;;5.35;100.00;100014.22;7391980;19;20022;-82
2023/04/27 00:22:48;;;;;;;7.85;2.08;;;;;;;6.31;100.00;100010.25;7392466;19;20034;-82
2023/04/27 00:25:15;;;;;;;3.55;1.48;;;;;;;5.38;100.00;100005.88;7396002;19;20358;-82
2023/04/27 00:27:41;;;;;;;2.05;1.95;;;;;;;4.99;100.00;100005.34;7393099;19;20015;-82
2023/04/27 00:30:09;;;;;;;1.25;1.25;;;;;;;4.92;100.00;100000.00;7393747;19;20050;-82
2023/04/27 00:32:35;;;;;;;3.22;2.20;;;;;;;4.92;100.00;100003.56;7392322;19;20014;-81
2023/04/27 00:35:02;;;;;;;1.00;1.00;;;;;;;4.89;100.00;100003.66;7392375;19;20465;-81
2023/04/27 00:37:28;;;;;;;5.15;2.85;;;;;;;4.85;100.00;100002.97;7392626;19;20108;-81
2023/04/27 00:39:54;;;;;;;1.55;1.45;;;;;;;4.82;100.00;100007.38;7388726;19;20027;-82
2023/04/27 00:42:20;;;;;;;1.73;1.63;;;;;;;4.84;100.00;100001.41;7391288;19;20846;-82
2023/04/27 00:44:50;;;;;;;3.30;2.00;;;;;;;4.81;100.00;100005.81;7390047;19;20524;-82
2023/04/27 00:47:16;;;;;;;7.97;1.63;;;;;;;4.76;100.00;99994.53;7388498;19;20537;-81
2023/04/27 00:49:43;;;;;;;2.50;2.30;;;;;;;4.67;100.00;100000.66;7387966;19;20017;-81
2023/04/27 00:52:09;;;;;;;5.50;2.30;;;;;;;4.71;100.00;99995.03;7390024;19;20022;-81
2023/04/27 00:54:35;;;;;;;4.80;1.33;;;;;;;6.63;100.00;99982.34;7391186;19;20365;-81
2023/04/27 00:57:03;;;;;;;1.65;1.10;;;;;;;14.16;100.00;99965.69;7391292;19;20019;-82
2023/04/27 00:59:29;;;;;;;2.17;1.73;;;;;;;16.11;85.94;99971.63;7388019;19;20025;-81
2023/04/27 01:01:55;;;;;;;1.55;1.45;;;;;;;10.28;100.00;99987.41;7388367;19;20029;-81
2023/04/27 01:04:22;;;;;;;1.95;1.38;;;;;;;16.65;76.73;99970.03;7389985;19;20033;-81
2023/04/27 01:06:48;;;;;;;6.07;1.38;;;;;;;19.72;62.73;99967.81;7387415;19;20018;-82
2023/04/27 01:09:15;;;;;;;1.98;1.63;;;;;;;7.92;100.00;99996.75;7390172;19;20354;-81
2023/04/27 01:11:41;;;;;;;7.97;1.45;;;;;;;6.29;100.00;99996.09;7390813;19;20026;-82
2023/04/27 01:14:07;;;;;;;2.40;1.00;;;;;;;5.77;100.00;99998.44;7396269;19;20026;-80
2023/04/27 01:16:34;;;;;;;6.70;1.13;;;;;;;5.50;100.00;99996.06;7390841;19;20019;-81
2023/04/27 01:19:01;;;;;;;1.73;1.63;;;;;;;5.32;100.00;99999.34;7388579;19;20015;-81
2023/04/27 01:21:28;;;;;;;1.30;1.30;;;;;;;5.15;100.00;100000.59;7389690;19;20054;-81
2023/04/27 01:23:54;;;;;;;1.88;1.33;;;;;;;5.12;100.00;100004.22;7390327;19;20353;-81
2023/04/27 01:26:21;;;;;;;2.03;0.80;;;;;;;5.07;100.00;100006.72;7387220;19;20431;-82
2023/04/27 01:28:48;;;;;;;1.90;1.45;;;;;;;5.02;100.00;99996.22;7387415;19;20513;-81
2023/04/27 01:31:14;;;;;;;0.90;0.90;;;;;;;5.18;100.00;100002.47;7389061;19;20015;-81
2023/04/27 01:33:41;;;;;;;5.97;1.55;;;;;;;5.06;100.00;99994.91;7394838;19;20472;-82
2023/04/27 01:36:08;;;;;;;7.60;2.45;;;;;;;5.03;100.00;100000.50;7389642;19;20015;-82
2023/04/27 01:38:34;;;;;;;1.33;1.13;;;;;;;5.07;100.00;100001.19;7389295;19;20018;-81
2023/04/27 01:41:03;;;;;;;2.08;1.40;;;;;;;5.11;100.00;100001.91;7389362;19;20027;-81
2023/04/27 01:43:30;;;;;;;7.72;1.42;;;;;;;5.18;100.00;100001.69;7393232;19;20022;-81
2023/04/27 01:46:06;;;;;;;1.30;1.00;;;;;;;5.26;100.00;100003.06;7387326;19;20018;-81
2023/04/27 01:48:33;;;;;;;1.17;1.17;;;;;;;5.38;100.00;99999.56;7387308;19;20461;-81
2023/04/27 01:51:00;;;;;;;0.80;0.80;;;;;;;5.44;100.00;99997.03;7387164;19;20019;-81
2023/04/27 01:53:27;;;;;;;4.63;1.70;;;;;;;5.57;100.00;100000.59;7391610;19;20019;-82
2023/04/27 01:55:53;;;;;;;12.38;2.80;;;;;;;5.63;100.00;99999.63;7390985;19;20018;-81
2023/04/27 01:58:20;;;;;;;1.48;1.38;;;;;;;9.75;100.00;99989.06;7388548;19;20027;-82
2023/04/27 02:00:47;;;;;;;3.58;2.47;;;;;;;13.46;84.19;99999.63;7386981;19;20039;-82
2023/04/27 02:03:13;;;;;;;1.15;1.00;;;;;;;14.36;100.00;99990.81;7391962;19;20096;-81
2023/04/27 02:05:40;;;;;;;1.95;1.50;;;;;;;19.22;64.29;99982.56;7388827;19;20377;-82
2023/04/27 02:08:06;;;;;;;1.08;1.08;;;;;;;7.79;100.00;100007.94;7387544;19;20014;-81
2023/04/27 02:10:34;;;;;;;3.63;1.30;;;;;;;7.12;100.00;100012.34;7387513;19;20023;-82
2023/04/27 02:13:01;;;;;;;5.32;1.63;;;;;;;5.99;100.00;100005.72;7390149;19;20382;-81
2023/04/27 02:15:27;;;;;;;7.55;1.58;;;;;;;7.28;100.00;99999.09;7388682;19;20030;-82
2023/04/27 02:17:53;;;;;;;1.88;0.88;;;;;;;5.83;100.00;100008.53;7389456;19;20407;-83
2023/04/27 02:20:20;;;;;;;1.73;1.60;;;;;;;5.58;100.00;99991.91;7388337;19;20011;-82
2023/04/27 02:22:47;;;;;;;2.53;1.75;;;;;;;5.67;100.00;99989.28;7390537;19;20088;-82
2023/04/27 02:25:13;;;;;;;0.80;0.80;;;;;;;6.13;100.00;99992.69;7394144;19;20040;-82
2023/04/27 02:27:42;;;;;;;0.85;0.85;;;;;;;5.72;100.00;99996.22;7389387;19;20382;-82
2023/04/27 02:30:09;;;;;;;1.10;0.75;;;;;;;6.16;100.00;99986.25;7394213;19;20018;-82
2023/04/27 02:32:36;;;;;;;2.13;1.35;;;;;;;7.29;100.00;99984.03;7397533;19;20508;-83
2023/04/27 02:35:03;;;;;;;0.93;0.85;;;;;;;7.19;100.00;99993.47;7395399;19;20022;-82
2023/04/27 02:37:29;;;;;;;1.52;0.90;;;;;;;7.46;100.00;99988.16;7394238;19;20074;-82
2023/04/27 02:39:56;;;;;;;3.08;1.20;;;;;;;7.72;100.00;99985.22;7391906;19;20039;-82
2023/04/27 02:42:22;;;;;;;1.83;1.60;;;;;;;12.31;100.00;99976.44;7392093;19;20014;-82
2023/04/27 02:44:48;;;;;;;3.35;0.73;;;;;;;12.53;100.00;99968.41;7394002;19;20034;-81
2023/04/27 02:47:14;;;;;;;1.50;1.08;;;;;;;14.16;86.31;99966.44;7392801;19;20015;-82
2023/04/27 02:49:42;;;;;;;7.32;1.80;;;;;;;13.53;95.12;99974.03;7392360;19;20491;-82
2023/04/27 02:52:08;;;;;;;6.32;2.25;;;;;;;8.20;100.00;99971.47;7395273;19;20014;-82
2023/04/27 02:54:34;;;;;;;10.73;1.48;;;;;;;6.74;100.00;99970.91;7397392;19;20497;-82
2023/04/27 02:57:01;;;;;;;1.75;1.05;;;;;;;6.13;100.00;99974.84;7394681;19;20031;-82
2023/04/27 02:59:27;;;;;;;4.95;1.90;;;;;;;5.82;100.00;99968.31;7393517;19;20025;-82
2023/04/27 03:01:53;;;;;;;4.30;2.33;;;;;;;10.12;100.00;99959.94;7390481;19;20018;-82
2023/04/27 03:04:19;;;;;;;8.35;1.77;;;;;;;12.17;95.22;99956.44;7390251;19;20037;-82
2023/04/27 03:06:46;;;;;;;1.73;1.38;;;;;;;13.25;83.62;99944.97;7390624;19;20027;-82
2023/04/27 03:09:12;;;;;;;3.83;1.63;;;;;;;8.46;100.00;99949.84;7391620;19;20019;-83
2023/04/27 03:11:38;;;;;;;1.95;1.42;;;;;;;7.26;100.00;99964.75;7395534;19;20011;-82
2023/04/27 03:14:05;;;;;;;7.55;1.80;;;;;;;7.71;100.00;99953.22;7399669;19;20030;-82
2023/04/27 03:16:31;;;;;;;2.08;1.50;;;;;;;6.68;100.00;99942.25;7394666;19;20021;-82
2023/04/27 03:18:58;;;;;;;6.32;1.23;;;;;;;6.31;100.00;99943.88;7393554;19;20025;-82
2023/04/27 03:21:25;;;;;;;2.97;1.50;;;;;;;6.20;100.00;99942.66;7391259;19;20011;-82
2023/04/27 03:23:52;;;;;;;8.20;2.08;;;;;;;6.02;100.00;99944.00;7393958;19;20026;-82
2023/04/27 03:26:19;;;;;;;2.38;1.55;;;;;;;5.94;100.00;99947.44;7390595;19;20010;-82
2023/04/27 03:28:45;;;;;;;1.27;0.73;;;;;;;5.87;100.00;99940.13;7391491;19;20470;-82
2023/04/27 03:31:13;;;;;;;2.60;0.65;;;;;;;5.94;100.00;99937.16;7393417;19;20015;-82
2023/04/27 03:33:40;;;;;;;1.52;1.42;;;;;;;5.98;100.00;99931.50;7397131;19;20018;-82
2023/04/27 03:36:07;;;;;;;1.75;1.65;;;;;;;6.02;100.00;99932.19;7393631;19;20011;-82
2023/04/27 03:38:34;;;;;;;4.53;2.40;;;;;;;6.12;100.00;99944.91;7391498;19;20055;-81
2023/04/27 03:41:01;;;;;;;3.65;1.55;;;;;;;6.15;100.00;99946.00;7391392;19;20007;-81
2023/04/27 03:43:27;;;;;;;1.65;1.55;;;;;;;6.28;100.00;99932.94;7393291;19;20017;-81
2023/04/27 03:45:53;;;;;;;1.23;1.13;;;;;;;6.27;100.00;99934.94;7389753;19;20468;-82
2023/04/27 03:48:21;;;;;;;19.23;2.30;;;;;;;6.40;100.00;99932.16;7390775;19;20015;-81
2023/04/27 03:50:48;;;;;;;2.70;2.45;;;;;;;6.47;100.00;99937.44;7392611;19;20019;-82
2023/04/27 03:53:15;;;;;;;1.42;1.33;;;;;;;6.47;100.00;99929.94;7395372;19;20018;-82
2023/04/27 03:55:42;;;;;;;2.20;1.90;;;;;;;6.48;100.00;99936.22;7394445;19;20172;-82
2023/04/27 03:58:10;;;;;;;3.80;1.35;;;;;;;6.17;100.00;99940.81;7391218;19;20035;-82
2023/04/27 04:00:37;;;;;;;3.22;2.15;;;;;;;6.00;100.00;99938.16;7390165;19;20018;-82
2023/04/27 04:03:05;;;;;;;3.95;1.67;;;;;;;6.11;100.00;99940.56;7396326;19;20022;-82
2023/04/27 04:05:32;;;;;;;2.72;1.63;;;;;;;6.08;100.00;99936.72;7391551;19;20381;-82
2023/04/27 04:07:59;;;;;;;2.67;2.00;;;;;;;6.55;100.00;99936.00;7393212;19;20437;-82
2023/04/27 04:10:27;;;;;;;2.28;1.55;;;;;;;6.68;100.00;99936.72;7392121;19;20035;-82
2023/04/27 04:12:53;;;;;;;2.58;1.50;;;;;;;6.70;100.00;99931.53;7393955;19;20022;-81
2023/04/27 04:15:19;;;;;;;12.25;1.70;;;;;;;6.66;100.00;99925.34;7391413;19;20021;-82
2023/04/27 04:17:48;;;;;;;1.58;1.48;;;;;;;6.28;100.00;99925.41;7391921;19;20014;-83
2023/04/27 04:20:14;;;;;;;10.35;1.60;;;;;;;6.17;100.00;99925.00;7390288;19;20038;-81
2023/04/27 04:22:42;;;;;;;9.75;2.58;;;;;;;6.59;100.00;99920.03;7393872;19;20010;-84
2023/04/27 04:25:08;;;;;;;1.83;1.33;;;;;;;6.75;100.00;99911.59;7395794;19;20018;-86
2023/04/27 04:27:35;;;;;;;8.05;3.47;;;;;;;6.30;100.00;99923.00;7392137;19;20017;-87
2023/04/27 04:30:05;;;;;;;0.65;0.65;;;;;;;6.32;100.00;99911.47;7390167;19;20413;-86
2023/04/27 04:32:32;;;;;;;8.07;2.08;;;;;;;6.42;100.00;99913.88;7391526;19;20469;-85
2023/04/27 04:35:00;;;;;;;4.50;1.70;;;;;;;6.50;100.00;99915.19;7390497;19;20017;-86
2023/04/27 04:37:27;;;;;;;1.27;1.00;;;;;;;6.45;100.00;99907.47;7391505;19;20021;-84
2023/04/27 04:39:54;;;;;;;5.90;1.52;;;;;;;6.55;100.00;99905.56;7390601;19;20070;-85
2023/04/27 04:42:20;;;;;;;8.85;2.78;;;;;;;6.57;100.00;99906.66;7391959;19;20023;-86
2023/04/27 04:44:46;;;;;;;3.50;1.45;;;;;;;6.58;100.00;99912.97;7390720;19;20018;-86
2023/04/27 04:47:12;;;;;;;6.28;2.80;;;;;;;6.58;100.00;99908.19;7391779;19;20043;-85
2023/04/27 04:49:39;;;;;;;3.50;1.77;;;;;;;17.12;100.00;99905.44;7389298;19;20475;-85
2023/04/27 04:52:05;;;;;;;6.35;1.95;;;;;;;12.01;100.00;99911.53;7390505;19;20017;-85
2023/04/27 04:54:32;;;;;;;3.15;1.70;;;;;;;15.62;100.00;99907.75;7394114;19;20007;-86
2023/04/27 04:56:59;;;;;;;1.35;1.35;;;;;;;18.33;85.08;99900.19;7391642;19;20017;-86
2023/04/27 04:59:25;;;;;;;11.38;2.17;;;;;;;24.38;53.04;99891.91;7389618;19;20505;-85
2023/04/27 05:01:54;;;;;;;7.80;2.15;;;;;;;22.63;50.89;99897.63;7390381;19;20023;-86
2023/04/27 05:04:21;;;;;;;7.55;1.88;;;;;;;20.62;56.83;99897.88;7389978;19;20015;-85
2023/04/27 05:06:47;;;;;;;4.93;1.85;;;;;;;15.34;64.84;99904.09;7391295;19;20033;-86
2023/04/27 05:09:14;;;;;;;2.40;1.65;;;;;;;18.42;88.36;99902.66;7391487;19;20024;-85
2023/04/27 05:11:40;;;;;;;5.03;1.45;;;;;;;12.55;96.07;99904.44;7392755;19;20015;-85
2023/04/27 05:14:06;;;;;;;4.57;1.83;;;;;;;9.12;100.00;99910.09;7395898;19;20084;-85
2023/04/27 05:16:32;;;;;;;2.20;2.00;;;;;;;10.10;100.00;99909.53;7390444;19;20014;-85
2023/04/27 05:18:58;;;;;;;3.95;1.85;;;;;;;8.21;100.00;99909.19;7390790;19;20011;-87
2023/04/27 05:21:24;;;;;;;5.72;1.73;;;;;;;15.42;100.00;99893.94;7388417;19;20031;-85
2023/04/27 05:23:50;;;;;;;5.18;1.95;;;;;;;9.33;100.00;99907.63;7392293;19;20046;-85
2023/04/27 05:26:17;;;;;;;10.05;2.42;;;;;;;14.39;100.00;99892.53;7388751;19;20019;-85
2023/04/27 05:28:45;;;;;;;8.93;2.65;;;;;;;23.57;55.84;99875.69;7388901;19;20052;-85
2023/04/27 05:31:11;;;;;;;21.55;4.65;;;;;;;23.52;52.73;99867.34;7391427;19;20022;-84
2023/04/27 05:33:38;;;;;;;2.65;2.13;;;;;;;25.44;45.48;99864.63;7393818;19;20022;-86
2023/04/27 05:36:04;;;;;;;11.15;3.58;;;;;;;16.65;59.12;99882.13;7391424;19;20015;-85
2023/04/27 05:38:32;;;;;;;3.75;2.17;;;;;;;10.08;100.00;99895.31;7389305;19;20010;-85
2023/04/27 05:40:58;;;;;;;13.07;5.22;;;;;;;15.84;100.00;99879.69;7388723;19;20414;-86
2023/04/27 05:43:25;;;;;;;4.90;3.83;;;;;;;18.72;87.10;99869.53;7394286;19;20035;-85
2023/04/27 05:45:52;;;;;;;7.95;3.58;;;;;;;23.17;52.47;99860.41;7390929;19;20023;-85
2023/04/27 05:48:19;;;;;;;6.90;3.90;;;;;;;13.60;80.29;99875.63;7389536;19;20088;-85
2023/04/27 05:50:45;;;;;;;8.55;3.65;;;;;;;9.38;100.00;99887.50;7388988;19;20021;-86
2023/04/27 05:53:11;;;;;;;11.10;2.85;;;;;;;8.97;100.00;99881.41;7392107;19;20025;-85
2023/04/27 05:55:38;;;;;;;4.20;2.92;;;;;;;16.10;100.00;99874.56;7390918;19;20022;-85
2023/04/27 05:58:04;;;;;;;11.98;3.28;;;;;;;14.03;93.43;99875.72;7390877;19;20110;-86
2023/04/27 06:00:30;;;;;;;11.35;3.10;;;;;;;14.58;100.00;99883.69;7387465;19;20020;-85
2023/04/27 06:02:56;;;;;;;3.30;2.00;;;;;;;18.67;81.80;99876.00;7395802;19;20011;-85
2023/04/27 06:05:23;;;;;;;11.07;2.45;;;;;;;17.51;67.62;99877.06;7397606;19;20021;-85
2023/04/27 06:07:49;;;;;;;8.82;2.50;;;;;;;17.00;89.13;99876.56;7398355;19;20026;-85
2023/04/27 06:10:15;;;;;;;19.52;2.80;;;;;;;11.08;100.00;99891.88;7398262;19;20464;-85
2023/04/27 06:12:41;;;;;;;5.75;2.60;;;;;;;18.76;83.77;99867.94;7398661;19;20100;-84
2023/04/27 06:15:08;;;;;;;10.50;3.53;;;;;;;13.60;94.14;99881.22;7398265;19;20014;-85
2023/04/27 06:17:35;;;;;;;11.15;3.00;;;;;;;14.45;87.23;99886.94;7399698;19;20032;-87
2023/04/27 06:20:05;;;;;;;4.50;2.40;;;;;;;11.19;100.00;99886.50;7392978;19;20366;-85
2023/04/27 06:22:32;;;;;;;7.10;3.00;;;;;;;9.57;100.00;99884.22;7394724;19;20398;-85
2023/04/27 06:24:58;;;;;;;11.82;4.38;;;;;;;9.24;100.00;99877.06;7398263;19;20469;-84
2023/04/27 06:27:24;;;;;;;8.15;3.50;;;;;;;9.29;100.00;99879.22;7395627;19;20015;-85
2023/04/27 06:29:50;;;;;;;3.70;2.15;;;;;;;9.41;100.00;99867.91;7394600;19;20500;-86
2023/04/27 06:32:17;;;;;;;6.82;3.95;;;;;;;9.43;100.00;99870.22;7396392;19;20022;-85
2023/04/27 06:34:43;;;;;;;10.95;3.13;;;;;;;9.51;100.00;99869.41;7397699;19;20007;-86
2023/04/27 06:37:09;;;;;;;5.00;3.03;;;;;;;9.51;100.00;99865.88;7397133;19;20022;-85
2023/04/27 06:39:35;;;;;;;10.25;4.03;;;;;;;9.58;100.00;99869.09;7395355;19;20025;-85
2023/04/27 06:42:04;;;;;;;11.32;2.55;;;;;;;9.70;100.00;99864.59;7394319;19;20022;-86
2023/04/27 06:44:31;;;;;;;4.43;1.95;;;;;;;9.81;100.00;99862.06;7392985;19;20514;-85
2023/04/27 06:46:57;;;;;;;7.20;2.92;;;;;;;9.83;100.00;99867.94;7392443;19;20052;-86
2023/04/27 06:49:24;;;;;;;8.50;3.90;;;;;;;9.98;100.00;99868.00;7393716;19;20052;-85
2023/04/27 06:51:50;;;;;;;10.35;1.50;;;;;;;10.19;100.00;99855.88;7396188;19;20015;-86
2023/04/27 06:54:16;;;;;;;8.50;2.78;;;;;;;20.15;96.69;99846.06;7397741;19;20021;-85
2023/04/27 06:56:43;;;;;;;3.05;1.80;;;;;;;19.94;72.84;99854.41;7393672;19;20416;-86
2023/04/27 06:59:10;;;;;;;5.20;2.72;;;;;;;26.11;50.77;99836.94;7392356;19;20039;-85
2023/04/27 07:01:36;;;;;;;2.45;2.22;;;;;;;13.34;100.00;99860.16;7392509;19;20017;-86
2023/04/27 07:04:03;;;;;;;4.10;1.98;;;;;;;11.55;100.00;99869.41;7398186;19;20358;-85
2023/04/27 07:06:30;;;;;;;3.90;2.90;;;;;;;16.89;100.00;99864.63;7393604;19;20022;-85
2023/04/27 07:08:56;;;;;;;3.30;2.00;;;;;;;14.06;100.00;99861.47;7393400;19;20021;-85
2023/04/27 07:11:22;;;;;;;6.95;2.55;;;;;;;11.61;100.00;99870.25;7394090;19;20473;-85
2023/04/27 07:13:49;;;;;;;2.63;1.40;;;;;;;10.59;100.00;99882.03;7398316;19;20029;-85
2023/04/27 07:16:16;;;;;;;9.98;2.05;;;;;;;10.38;100.00;99880.34;7396480;19;20027;-85
2023/04/27 07:18:42;;;;;;;2.00;1.85;;;;;;;10.37;100.00;99876.00;7395499;19;20024;-86
2023/04/27 07:21:10;;;;;;;12.50;2.38;;;;;;;10.36;100.00;99882.81;7396232;19;20090;-86
2023/04/27 07:23:36;;;;;;;11.77;2.42;;;;;;;10.65;100.00;99887.75;7396232;19;20338;-86
2023/04/27 07:26:02;;;;;;;8.00;1.88;;;;;;;15.31;100.00;99882.69;7394683;19;20040;-86
2023/04/27 07:28:28;;;;;;;7.80;2.97;;;;;;;11.93;100.00;99888.81;7393994;19;20051;-85
2023/04/27 07:30:56;;;;;;;3.97;2.10;;;;;;;12.11;100.00;99888.59;7398449;19;20019;-85
2023/04/27 07:33:22;;;;;;;9.00;2.22;;;;;;;16.17;100.00;99876.84;7396377;19;20027;-87
2023/04/27 07:35:49;;;;;;;4.90;2.83;;;;;;;20.65;77.48;99865.69;7395014;19;20341;-86
2023/04/27 07:38:16;;;;;;;4.63;1.55;;;;;;;19.39;77.49;99858.88;7394787;19;20026;-87
2023/04/27 07:40:42;;;;;;;4.53;1.67;;;;;;;22.90;63.71;99845.69;7391152;19;20006;-87
2023/04/27 07:43:09;;;;;;;3.97;1.45;;;;;;;17.34;66.98;99871.53;7397061;19;20018;-86
2023/04/27 07:45:37;;;;;;;5.50;2.55;;;;;;;15.97;70.03;99865.88;7393613;19;20022;-87
2023/04/27 07:48:04;;;;;;;4.72;1.77;;;;;;;24.83;55.63;99849.09;7395784;19;20009;-86
2023/04/27 07:50:31;;;;;;;7.63;2.95;;;;;;;23.80;49.77;99838.75;7394092;19;20022;-84
2023/04/27 07:52:57;;;;;;;5.10;1.88;;;;;;;28.63;38.61;99845.16;7396062;19;20022;-84
2023/04/27 07:55:24;;;;;;;8.00;2.85;;;;;;;16.19;60.78;99865.88;7396032;19;20367;-83
2023/04/27 07:57:55;;;;;;;1.75;1.55;;;;;;;22.91;54.87;99846.47;7393858;19;20011;-83
2023/04/27 08:00:22;;;;;;;6.55;1.75;;;;;;;21.16;51.22;99851.25;7390910;19;20010;-84
2023/04/27 08:02:49;;;;;;;4.63;2.25;;;;;;;25.76;44.18;99845.94;7393761;19;20002;-83
2023/04/27 08:05:16;;;;;;;3.28;1.60;;;;;;;26.13;39.61;99842.06;7393378;19;20367;-83
2023/04/27 08:07:42;;;;;;;5.45;2.22;;;;;;;27.15;36.61;99832.78;7392040;19;20014;-83
2023/04/27 08:10:08;;;;;;;6.63;2.35;;;;;;;28.31;34.84;99823.34;7390645;19;20007;-83
2023/04/27 08:12:35;;;;;;;2.92;1.33;;;;;;;18.20;45.09;99827.53;7394344;19;20011;-84
2023/04/27 08:15:01;;;;;;;13.25;3.25;;;;;;;14.03;75.27;99833.72;7392034;19;20010;-83
2023/04/27 08:17:27;;;;;;;5.93;1.63;;;;;;;13.14;93.23;99827.41;7391204;19;20512;-83
2023/04/27 08:19:53;;;;;;;5.55;2.13;;;;;;;12.78;98.93;99828.00;7389715;19;20039;-84
2023/04/27 08:22:19;;;;;;;7.10;1.30;;;;;;;23.38;46.90;99807.06;7390294;19;20017;-84
2023/04/27 08:24:46;;;;;;;5.70;1.85;;;;;;;14.23;82.98;99820.31;7390193;19;20478;-83
2023/04/27 08:27:12;;;;;;;5.68;2.25;;;;;;;14.52;95.91;99810.81;7390384;19;20022;-85
2023/04/27 08:29:43;;;;;;;2.25;1.58;;;;;;;22.31;59.49;99793.69;7389770;19;20078;-84
2023/04/27 08:32:10;;;;;;;13.18;2.75;;;;;;;13.90;90.23;99802.59;7393204;19;20038;-84
2023/04/27 08:34:37;;;;;;;10.23;2.42;;;;;;;13.04;99.77;99791.69;7391203;19;20077;-84
2023/04/27 08:37:03;;;;;;;10.13;3.60;;;;;;;12.68;100.00;99791.06;7392543;19;20018;-83
2023/04/27 08:39:29;;;;;;;9.30;3.25;;;;;;;12.65;100.00;99786.47;7391465;19;20393;-84
2023/04/27 08:41:55;;;;;;;14.25;3.17;;;;;;;12.79;100.00;99784.84;7390233;19;20022;-84
2023/04/27 08:44:21;;;;;;;6.78;2.13;;;;;;;12.82;100.00;99786.66;7390061;19;20078;-83
2023/04/27 08:46:48;;;;;;;24.52;3.55;;;;;;;13.07;100.00;99788.72;7388278;19;20410;-82
2023/04/27 08:49:14;;;;;;;3.30;1.60;;;;;;;13.27;100.00;99797.03;7389134;19;20006;-84
2023/04/27 08:51:40;;;;;;;9.65;2.22;;;;;;;13.09;100.00;99788.97;7392854;19;20378;-86
2023/04/27 08:54:06;;;;;;;7.68;2.47;;;;;;;12.94;100.00;99785.50;7396918;19;20022;-86
2023/04/27 08:56:33;;;;;;;11.27;2.30;;;;;;;13.06;100.00;99787.16;7390995;19;20046;-85
2023/04/27 08:59:01;;;;;;;5.95;2.67;;;;;;;12.87;100.00;99775.53;7389391;19;20056;-86
2023/04/27 09:01:27;;;;;;;6.03;2.17;;;;;;;12.83;100.00;99774.19;7390217;19;20022;-86
2023/04/27 09:04:06;;;;;;;6.75;2.60;;;;;;;12.98;100.00;99774.84;7394473;19;20099;-86
2023/04/27 09:06:34;;;;;;;3.03;1.55;;;;;;;15.81;83.67;99773.97;7388934;19;20082;-86
2023/04/27 09:09:01;;;;;;;5.20;3.08;;;;;;;13.50;100.00;99776.34;7390518;19;20010;-85
2023/04/27 09:11:30;;;;;;;5.88;3.17;;;;;;;13.05;100.00;99771.66;7390502;19;20074;-85
2023/04/27 09:13:58;;;;;;;6.90;3.25;;;;;;;12.98;100.00;99777.66;7395499;19;20026;-85
2023/04/27 09:16:26;;;;;;;6.57;2.38;;;;;;;17.75;97.19;99765.25;7389932;19;20027;-85
2023/04/27 09:18:53;;;;;;;8.88;2.30;;;;;;;24.78;56.82;99753.19;7388490;19;20601;-84
2023/04/27 09:21:28;;;;;;;7.28;2.83;;;;;;;17.61;72.55;99782.50;7389384;19;20025;-85
2023/04/27 09:23:55;;;;;;;3.97;2.88;;;;;;;15.36;92.41;99778.09;7393092;19;20010;-84
2023/04/27 09:26:23;;;;;;;12.10;2.85;;;;;;;26.07;46.31;99762.38;7388739;19;20018;-84
2023/04/27 09:28:51;;;;;;;7.20;2.05;;;;;;;26.67;45.96;99757.31;7387392;19;20369;-83
2023/04/27 09:31:18;;;;;;;2.95;2.25;;;;;;;20.60;56.02;99761.06;7389852;19;20023;-83
2023/04/27 09:33:46;;;;;;;5.68;2.75;;;;;;;28.30;41.58;99735.91;7394325;19;20014;-83
2023/04/27 09:36:12;;;;;;;7.00;2.58;;;;;;;24.44;48.56;99738.69;7389318;19;20015;-82
2023/04/27 09:38:39;;;;;;;12.50;2.63;;;;;;;30.18;36.14;99732.91;7395375;19;20469;-82
2023/04/27 09:41:07;;;;;;;9.07;2.35;;;;;;;28.28;38.13;99725.06;7395428;19;20414;-82
2023/04/27 09:43:33;;;;;;;3.65;2.28;;;;;;;30.50;34.48;99732.97;7400037;19;20050;-82
2023/04/27 09:46:00;;;;;;;6.10;2.63;;;;;;;24.59;38.41;99739.41;7396362;19;20018;-82
2023/04/27 09:48:26;;;;;;;8.02;2.40;;;;;;;29.72;34.31;99728.34;7397437;19;20051;-83
2023/04/27 09:50:52;;;;;;;6.47;3.60;;;;;;;30.57;33.12;99739.88;7397552;19;20019;-82
2023/04/27 09:53:23;;;;;;;3.92;1.05;;;;;;;24.70;37.39;99746.75;7401515;19;20018;-83
2023/04/27 09:56:15;;;;;;;3.72;1.60;;;;;;;29.52;34.02;99741.28;7398166;19;20345;-82
2023/04/27 09:59:18;;;;;;;5.82;2.22;;;;;;;30.81;31.48;99732.06;7396866;19;20035;-82
2023/04/27 10:01:53;;;;;;;3.38;1.17;;;;;;;29.90;32.18;99743.97;7395566;19;20015;-82
2023/04/27 10:04:28;;;;;;;5.63;1.73;;;;;;;30.12;31.70;99738.25;7395860;19;20025;-84
2023/04/27 10:06:55;;;;;;;5.53;2.33;;;;;;;31.78;30.19;99724.56;7396170;19;20031;-83
2023/04/27 10:09:22;;;;;;;6.97;1.90;;;;;;;30.73;30.67;99731.53;7395060;19;20429;-83
2023/04/27 10:11:50;;;;;;;3.80;2.47;;;;;;;29.91;31.60;99731.09;7396263;19;20379;-81
2023/04/27 10:14:23;;;;;;;4.82;1.38;;;;;;;31.72;30.05;99724.19;7398451;19;20019;-83
2023/04/27 10:16:53;;;;;;;3.90;1.27;;;;;;;32.02;29.14;99717.41;7395012;19;20021;-82
2023/04/27 10:19:20;;;;;;;12.30;3.53;;;;;;;30.77;30.08;99718.19;7393736;19;20396;-81
2023/04/27 10:22:06;;;;;;;6.35;2.28;;;;;;;30.60;30.13;99710.63;7394699;19;20019;-82
2023/04/27 10:24:41;;;;;;;3.05;1.95;;;;;;;32.35;28.69;99712.19;7397328;19;20011;-83
2023/04/27 10:27:14;;;;;;;5.63;2.45;;;;;;;32.72;28.09;99701.38;7393028;19;20492;-84
2023/04/27 10:29:43;;;;;;;2.70;1.27;;;;;;;32.56;27.81;99712.00;7393982;19;20038;-81
2023/04/27 10:32:12;;;;;;;3.00;1.88;;;;;;;29.39;31.47;99706.63;7396956;19;20029;-81
2023/04/27 10:34:40;;;;;;;3.35;1.55;;;;;;;32.37;28.63;99703.66;7396742;19;20022;-83
2023/04/27 10:37:10;;;;;;;4.32;2.03;;;;;;;30.54;29.75;99697.97;7395864;19;20747;-83
2023/04/27 10:39:38;;;;;;;1.33;1.08;;;;;;;32.40;27.99;99690.84;7394308;19;20025;-83
2023/04/27 10:42:06;;;;;;;11.68;3.00;;;;;;;32.63;27.50;99693.66;7393520;19;20014;-84
2023/04/27 10:44:34;;;;;;;3.88;1.35;;;;;;;33.19;26.80;99680.88;7391606;19;20410;-83
2023/04/27 10:47:10;;;;;;;3.25;1.23;;;;;;;33.29;26.76;99687.19;7391883;19;20007;-84
2023/04/27 10:49:37;;;;;;;1.00;0.73;;;;;;;33.26;26.28;99688.50;7390093;19;20014;-84
2023/04/27 10:52:03;;;;;;;2.95;1.95;;;;;;;33.10;26.01;99679.69;7399583;19;20018;-84
2023/04/27 10:54:30;;;;;;;3.22;1.63;;;;;;;33.11;25.64;99663.13;7400491;19;20022;-84
2023/04/27 10:57:04;;;;;;;4.22;1.50;;;;;;;32.82;25.74;99664.44;7396033;19;20333;-85
2023/04/27 10:59:30;;;;;;;3.95;2.25;;;;;;;33.05;25.95;99657.78;7392408;19;20031;-85
2023/04/27 11:01:56;;;;;;;7.00;2.47;;;;;;;32.04;26.52;99662.78;7392880;19;20014;-85
2023/04/27 11:04:22;;;;;;;3.67;1.45;;;;;;;32.89;26.11;99656.88;7397336;19;20006;-85
2023/04/27 11:06:49;;;;;;;3.75;2.40;;;;;;;30.68;27.43;99667.28;7393420;19;20021;-85
2023/04/27 11:09:26;;;;;;;8.68;2.63;;;;;;;18.61;41.33;99675.03;7391762;19;20014;-85
2023/04/27 11:11:52;;;;;;;6.68;1.88;;;;;;;17.87;46.66;99673.66;7394174;19;20515;-83
2023/04/27 11:14:20;;;;;;;2.30;1.45;;;;;;;20.27;46.36;99663.56;7398599;19;20015;-81
2023/04/27 11:16:47;;;;;;;4.88;2.00;;;;;;;17.47;51.25;99666.16;7395130;19;20014;-86
2023/04/27 11:19:13;;;;;;;2.42;2.17;;;;;;;17.54;52.74;99653.59;7392000;19;20486;-83
2023/04/27 11:21:40;;;;;;;4.90;1.75;;;;;;;16.22;60.03;99659.69;7391145;19;20354;-84
2023/04/27 11:24:08;;;;;;;7.15;1.67;;;;;;;16.90;59.02;99655.16;7397057;19;20078;-83
2023/04/27 11:26:35;;;;;;;12.93;3.03;;;;;;;22.81;45.69;99641.00;7390221;19;20429;-84
2023/04/27 11:29:15;;;;;;;21.83;3.60;;;;;;;26.22;36.72;99633.00;7390067;19;20011;-83